createdAt,value
2019-03-15T15:42:10.853Z,27.03
2019-03-15T15:44:39.763Z,24.43
2019-03-15T15:47:07.791Z,23.63
2019-03-15T15:49:36.469Z,25.53
2019-03-15T15:52:04.360Z,29.17
2019-03-15T15:54:32.410Z,29.53
2019-03-15T15:57:00.470Z,27.47
2019-03-15T15:59:28.550Z,28.90
2019-03-15T16:01:56.250Z,28.57
2019-03-15T16:04:24.220Z,24.57
2019-03-15T16:06:52.445Z,23.80
2019-03-15T16:09:20.130Z,21.57
2019-03-15T16:11:48.070Z,24.23
2019-03-15T16:14:15.792Z,25.13
2019-03-15T16:16:44.370Z,22.33
2019-03-15T16:19:13.091Z,22.37
2019-03-15T16:21:40.818Z,24.67
2019-03-15T16:24:09.893Z,19.80
2019-03-15T16:26:38.000Z,20.00
2019-03-15T16:29:05.638Z,18.93
2019-03-15T16:31:33.521Z,20.07
2019-03-15T16:34:03.818Z,19.87
2019-03-15T16:36:31.690Z,20.27
2019-03-15T16:38:59.548Z,19.07
2019-03-15T16:41:27.870Z,20.33
2019-03-15T16:43:56.485Z,21.17
2019-03-15T16:46:24.571Z,21.17
2019-03-15T16:48:52.566Z,20.10
2019-03-15T16:51:20.920Z,22.03
2019-03-15T16:53:49.550Z,17.87
2019-03-15T16:56:20.167Z,18.17
2019-03-15T16:58:48.874Z,19.50
2019-03-15T17:01:16.727Z,19.32
2019-03-15T17:03:44.762Z,17.47
2019-03-15T17:06:13.475Z,18.57
2019-03-15T17:08:41.622Z,18.83
2019-03-15T17:11:09.876Z,19.53
2019-03-15T17:13:37.850Z,20.27
2019-03-15T17:16:06.109Z,17.23
2019-03-15T17:18:34.144Z,14.77
2019-03-15T17:21:01.889Z,16.17
2019-03-15T17:23:29.977Z,16.50
2019-03-15T17:25:58.018Z,18.13
2019-03-15T17:28:25.905Z,21.07
2019-03-15T17:30:53.734Z,17.10
2019-03-15T17:33:21.860Z,17.33
2019-03-15T17:35:50.544Z,18.63
2019-03-15T17:38:18.568Z,19.47
2019-03-15T17:40:46.316Z,17.53
2019-03-15T17:43:14.310Z,16.27
2019-03-15T17:45:42.188Z,17.87
2019-03-15T17:48:10.243Z,18.77
2019-03-15T17:50:38.314Z,16.50
2019-03-15T17:53:06.219Z,17.50
2019-03-15T17:55:34.250Z,16.40
2019-03-15T17:58:01.959Z,17.33
2019-03-15T18:00:40.230Z,18.23
2019-03-15T18:03:19.857Z,16.13
2019-03-15T18:05:38.030Z,15.10
2019-03-15T18:08:06.282Z,16.27
2019-03-15T18:10:34.155Z,17.33
2019-03-15T18:13:02.015Z,14.87
2019-03-15T18:15:29.723Z,14.40
2019-03-15T18:17:59.978Z,15.30
2019-03-15T18:20:26.920Z,15.73
2019-03-15T18:22:55.550Z,16.37
2019-03-15T18:25:24.450Z,14.90
2019-03-15T18:27:52.429Z,15.30
2019-03-15T18:30:20.362Z,14.47
2019-03-15T18:32:48.278Z,16.80
2019-03-15T18:35:16.229Z,12.50
2019-03-15T18:37:44.004Z,14.97
2019-03-15T18:40:12.840Z,13.63
2019-03-15T18:42:41.334Z,15.33
2019-03-15T18:45:10.640Z,14.33
2019-03-15T18:47:38.414Z,16.13
2019-03-15T18:50:13.540Z,13.97
2019-03-15T18:52:41.330Z,14.23
2019-03-15T18:55:09.299Z,15.10
2019-03-15T18:57:37.549Z,13.93
2019-03-15T19:00:20.903Z,13.10
2019-03-15T19:02:49.451Z,14.77
2019-03-15T19:05:17.354Z,13.37
2019-03-15T19:07:45.179Z,13.53
2019-03-15T19:10:16.330Z,14.57
2019-03-15T19:12:45.219Z,12.43
2019-03-15T19:15:13.899Z,12.43
2019-03-15T19:17:41.783Z,13.10
2019-03-15T19:20:11.156Z,13.17
2019-03-15T19:22:39.158Z,14.40
2019-03-15T19:25:08.649Z,12.83
2019-03-15T19:27:36.669Z,14.03
2019-03-15T19:30:09.611Z,14.20
2019-03-15T19:32:37.579Z,13.80
2019-03-15T19:35:05.834Z,13.60
2019-03-15T19:37:34.587Z,12.47
2019-03-15T19:40:02.352Z,12.00
2019-03-15T19:42:30.039Z,12.93
2019-03-15T19:44:57.740Z,12.87
2019-03-15T19:47:26.039Z,13.13
2019-03-15T19:49:54.110Z,11.40
2019-03-15T19:52:21.953Z,11.77
2019-03-15T19:54:59.750Z,14.17
2019-03-15T19:57:19.139Z,14.20
2019-03-15T19:59:47.029Z,13.63
2019-03-15T20:02:15.665Z,17.33
2019-03-15T20:04:45.169Z,9.77
2019-03-15T20:07:13.084Z,16.20
2019-03-15T20:09:41.100Z,12.77
2019-03-15T20:12:09.018Z,12.67
2019-03-15T20:14:37.050Z,21.80
2019-03-15T20:17:04.919Z,12.33
2019-03-15T20:19:34.830Z,11.07
2019-03-15T20:22:03.660Z,11.00
2019-03-15T20:24:31.440Z,11.17
2019-03-15T20:26:59.289Z,11.00
2019-03-15T20:29:27.150Z,12.17
